Time;durP1;ratioP1;P1;durP2;ratioP2;P2;SDS_P1;SDS_P2;PMS_P1;PMS_P2;Temp;Humidity;BMP_temperature;BMP_pressure;BME280_temperature;BME280_humidity;BME280_pressure;Samples;Min_cycle;Max_cycle;Signal;HPM_P1;HPM_P2
2021/11/06 00:00:24;;;;;;;2.58;1.90;;;8.90;97.10;;;;;;5013959;28;20160;-75
2021/11/06 00:02:49;;;;;;;6.20;3.10;;;8.90;97.10;;;;;;5014304;28;20076;-75
2021/11/06 00:05:15;;;;;;;8.15;2.28;;;8.90;97.10;;;;;;5014884;28;20026;-75
2021/11/06 00:07:41;;;;;;;8.32;2.42;;;8.90;97.10;;;;;;5015010;28;20045;-75
2021/11/06 00:10:09;;;;;;;4.25;2.30;;;8.90;97.10;;;;;;5015114;28;20026;-75
2021/11/06 00:12:36;;;;;;;4.03;2.35;;;8.90;97.00;;;;;;5014351;28;20034;-75
2021/11/06 00:15:02;;;;;;;4.47;2.25;;;8.80;97.00;;;;;;5015381;28;20034;-75
2021/11/06 00:17:28;;;;;;;4.25;2.40;;;8.80;97.10;;;;;;5014989;28;20033;-74
2021/11/06 00:19:53;;;;;;;6.05;1.98;;;8.80;97.10;;;;;;5013758;28;20022;-74
2021/11/06 00:22:19;;;;;;;4.38;2.42;;;8.80;97.10;;;;;;5014245;28;20399;-74
2021/11/06 00:24:45;;;;;;;5.68;2.58;;;8.80;97.10;;;;;;5014848;28;20030;-74
2021/11/06 00:27:10;;;;;;;5.63;2.72;;;8.70;97.00;;;;;;5015417;28;20453;-74
2021/11/06 00:29:36;;;;;;;5.72;3.05;;;8.70;97.10;;;;;;5014790;28;20493;-74
2021/11/06 00:32:02;;;;;;;4.00;2.65;;;8.70;97.40;;;;;;5014584;28;20136;-74
2021/11/06 00:34:28;;;;;;;4.30;2.30;;;8.60;97.20;;;;;;5013661;28;20045;-74
2021/11/06 00:36:53;;;;;;;4.95;2.30;;;8.60;97.20;;;;;;5014668;28;20022;-73
2021/11/06 00:39:19;;;;;;;6.30;2.42;;;8.60;97.20;;;;;;5013520;28;20025;-73
2021/11/06 00:41:45;;;;;;;4.35;2.20;;;8.60;97.30;;;;;;5013189;28;20546;-74
2021/11/06 00:44:10;;;;;;;4.03;2.72;;;8.60;97.30;;;;;;5013131;28;20029;-74
2021/11/06 00:46:36;;;;;;;5.25;2.72;;;8.50;97.20;;;;;;5014068;28;20069;-75
2021/11/06 00:49:03;;;;;;;5.13;2.58;;;8.50;97.30;;;;;;5012841;28;20026;-74
2021/11/06 00:51:29;;;;;;;6.90;2.65;;;8.50;97.30;;;;;;5014016;28;20033;-74
2021/11/06 00:53:54;;;;;;;3.85;2.22;;;8.60;97.30;;;;;;5012995;28;20034;-75
2021/11/06 00:56:20;;;;;;;6.20;2.60;;;8.60;97.20;;;;;;5014480;28;20061;-74
2021/11/06 00:58:46;;;;;;;3.58;2.00;;;8.60;97.20;;;;;;5014024;28;20064;-74
2021/11/06 01:01:12;;;;;;;6.53;3.47;;;8.50;97.20;;;;;;5014389;28;20050;-75
2021/11/06 01:03:37;;;;;;;4.57;2.67;;;8.50;97.10;;;;;;5012984;28;20032;-74
2021/11/06 01:06:03;;;;;;;4.18;2.50;;;8.50;97.10;;;;;;5012233;28;20076;-74
2021/11/06 01:08:29;;;;;;;7.18;3.00;;;8.50;97.20;;;;;;5014101;28;20048;-74
2021/11/06 01:10:55;;;;;;;5.30;2.65;;;8.50;97.10;;;;;;5012583;28;20056;-74
2021/11/06 01:13:21;;;;;;;6.68;2.88;;;8.50;97.10;;;;;;5013786;28;20030;-74
2021/11/06 01:15:47;;;;;;;8.30;3.40;;;8.50;97.10;;;;;;5012540;28;20060;-74
2021/11/06 01:18:13;;;;;;;6.00;3.33;;;8.60;97.10;;;;;;5013824;28;20026;-74
2021/11/06 01:20:38;;;;;;;6.07;3.03;;;8.60;97.10;;;;;;5012618;28;20359;-74
2021/11/06 01:23:04;;;;;;;7.22;3.38;;;8.60;97.00;;;;;;5013765;28;20497;-74
2021/11/06 01:25:30;;;;;;;5.13;3.30;;;8.60;96.90;;;;;;5012486;28;20025;-74
2021/11/06 01:27:56;;;;;;;8.02;4.10;;;8.60;96.90;;;;;;5012061;28;20500;-75
2021/11/06 01:30:22;;;;;;;10.23;4.72;;;8.60;96.90;;;;;;5013651;28;20033;-75
2021/11/06 01:32:49;;;;;;;6.60;3.45;;;8.60;96.90;;;;;;5013626;28;20034;-74
2021/11/06 01:35:16;;;;;;;5.70;3.58;;;8.60;96.90;;;;;;5011947;28;20497;-74
2021/11/06 01:37:42;;;;;;;9.70;4.97;;;8.60;96.80;;;;;;5013786;28;20026;-74
2021/11/06 01:40:10;;;;;;;7.65;4.60;;;8.50;96.80;;;;;;5013996;28;20032;-74
2021/11/06 01:42:38;;;;;;;9.10;4.38;;;8.60;96.80;;;;;;5013391;28;20030;-75
2021/11/06 01:45:05;;;;;;;5.93;3.92;;;8.60;96.80;;;;;;5013495;28;20446;-74
2021/11/06 01:47:31;;;;;;;6.70;4.00;;;8.60;96.80;;;;;;5012067;28;20477;-74
2021/11/06 01:49:57;;;;;;;7.50;4.35;;;8.60;96.70;;;;;;5013960;28;20029;-74
2021/11/06 01:52:22;;;;;;;8.40;3.83;;;8.60;96.70;;;;;;5011588;28;20022;-74
2021/11/06 01:54:48;;;;;;;10.63;4.20;;;8.60;96.70;;;;;;5013345;28;20028;-74
2021/11/06 01:57:15;;;;;;;8.30;4.78;;;8.60;96.60;;;;;;5012108;28;20113;-75
2021/11/06 01:59:41;;;;;;;9.45;4.47;;;8.60;96.60;;;;;;5013483;28;20161;-74
2021/11/06 02:02:07;;;;;;;7.28;4.38;;;8.60;96.60;;;;;;5013243;28;20018;-74
2021/11/06 02:04:33;;;;;;;9.93;4.38;;;8.60;96.60;;;;;;5012839;28;20062;-74
2021/11/06 02:06:59;;;;;;;10.77;4.32;;;8.60;96.60;;;;;;5013551;28;20032;-74
2021/11/06 02:09:24;;;;;;;8.82;4.40;;;8.60;96.50;;;;;;5011484;28;20210;-74
2021/11/06 02:11:50;;;;;;;6.18;3.30;;;8.70;96.50;;;;;;5012924;28;20029;-74
2021/11/06 02:14:16;;;;;;;9.30;4.38;;;8.70;96.50;;;;;;5011835;28;20048;-74
2021/11/06 02:16:42;;;;;;;8.10;4.22;;;8.70;96.50;;;;;;5012868;28;20454;-74
2021/11/06 02:19:07;;;;;;;10.20;4.60;;;8.70;96.50;;;;;;5015857;28;20412;-74
2021/11/06 02:21:34;;;;;;;6.60;3.70;;;8.70;96.50;;;;;;5015801;28;20029;-74
2021/11/06 02:24:00;;;;;;;7.93;4.18;;;8.70;96.50;;;;;;5016487;28;20061;-74
2021/11/06 02:26:26;;;;;;;6.03;3.15;;;8.80;96.50;;;;;;5017270;28;20061;-74
2021/11/06 02:28:56;;;;;;;5.28;3.15;;;8.70;96.40;;;;;;5015704;28;20429;-75
2021/11/06 02:31:22;;;;;;;8.60;4.40;;;8.70;96.40;;;;;;5017485;28;20021;-75
2021/11/06 02:33:50;;;;;;;14.05;5.18;;;8.70;96.50;;;;;;5014880;28;20486;-74
2021/11/06 02:36:17;;;;;;;11.10;4.57;;;8.70;96.40;;;;;;5015490;28;20087;-74
2021/11/06 02:38:43;;;;;;;7.72;4.57;;;8.70;96.40;;;;;;5016777;28;20022;-74
2021/11/06 02:41:08;;;;;;;8.50;4.72;;;8.70;96.50;;;;;;5016782;28;20022;-74
2021/11/06 02:43:34;;;;;;;10.15;4.68;;;8.70;96.50;;;;;;5016078;28;20022;-74
2021/11/06 02:46:00;;;;;;;10.27;4.63;;;8.70;96.40;;;;;;5015305;28;20037;-73
2021/11/06 02:48:26;;;;;;;8.38;4.53;;;8.80;96.40;;;;;;5015527;28;20054;-75
2021/11/06 02:50:52;;;;;;;10.30;5.35;;;8.80;96.40;;;;;;5015295;28;20018;-75
2021/11/06 02:53:18;;;;;;;11.65;6.60;;;8.80;96.30;;;;;;5016729;28;20531;-74
2021/11/06 02:55:44;;;;;;;9.65;5.30;;;8.80;96.30;;;;;;5016462;28;20065;-75
2021/11/06 02:58:11;;;;;;;13.00;5.18;;;8.70;96.30;;;;;;5015490;28;20107;-74
2021/11/06 03:00:38;;;;;;;8.18;4.57;;;8.70;96.30;;;;;;5016343;28;20022;-75
2021/11/06 03:03:04;;;;;;;13.50;5.00;;;8.70;96.30;;;;;;5016416;28;20033;-74
2021/11/06 03:05:30;;;;;;;16.50;6.25;;;8.70;96.30;;;;;;5014911;28;20084;-74
2021/11/06 03:07:56;;;;;;;11.60;5.07;;;8.70;96.30;;;;;;5015983;28;20026;-74
2021/11/06 03:10:21;;;;;;;10.05;5.43;;;8.70;96.30;;;;;;5015998;28;20026;-74
2021/11/06 03:12:48;;;;;;;11.70;6.05;;;8.80;96.30;;;;;;5016518;28;20030;-74
2021/11/06 03:15:15;;;;;;;12.38;4.82;;;8.80;96.30;;;;;;5016688;28;20105;-74
2021/11/06 03:17:41;;;;;;;13.77;5.47;;;8.80;96.20;;;;;;5014712;28;20026;-74
2021/11/06 03:20:08;;;;;;;14.00;5.22;;;8.80;96.20;;;;;;5016021;28;20102;-75
2021/11/06 03:22:33;;;;;;;14.18;6.38;;;8.80;96.10;;;;;;5014966;28;20051;-74
2021/11/06 03:25:02;;;;;;;16.67;6.65;;;8.80;96.10;;;;;;5014721;28;20529;-74
2021/11/06 03:27:27;;;;;;;10.85;5.47;;;8.80;96.10;;;;;;5014464;28;20454;-75
2021/11/06 03:29:54;;;;;;;13.38;5.95;;;8.80;96.10;;;;;;5016289;28;20030;-75
2021/11/06 03:32:20;;;;;;;16.52;6.20;;;8.80;96.10;;;;;;5014418;28;20410;-74
2021/11/06 03:34:46;;;;;;;14.93;6.03;;;8.80;96.10;;;;;;5015622;28;20065;-74
2021/11/06 03:37:11;;;;;;;12.65;5.70;;;8.90;96.10;;;;;;5014453;28;20050;-74
2021/11/06 03:39:37;;;;;;;11.57;5.85;;;8.90;96.00;;;;;;5015737;28;20048;-74
2021/11/06 03:42:04;;;;;;;16.73;5.57;;;8.90;96.00;;;;;;5014327;28;20025;-74
2021/11/06 03:44:30;;;;;;;14.05;6.53;;;8.80;96.00;;;;;;5015334;28;20029;-74
2021/11/06 03:46:56;;;;;;;15.90;6.57;;;8.90;96.00;;;;;;5014247;28;20391;-74
2021/11/06 03:49:22;;;;;;;16.15;6.25;;;8.80;96.00;;;;;;5015769;28;20032;-74
2021/11/06 03:51:48;;;;;;;15.00;5.78;;;8.80;96.00;;;;;;5015458;28;20033;-74
2021/11/06 03:54:13;;;;;;;13.13;5.75;;;8.80;95.90;;;;;;5014026;28;20343;-74
2021/11/06 03:56:39;;;;;;;9.43;4.97;;;8.80;95.90;;;;;;5014742;28;20022;-74
2021/11/06 03:59:05;;;;;;;11.52;5.90;;;8.90;96.00;;;;;;5015378;28;20064;-74
2021/11/06 04:01:32;;;;;;;13.48;6.00;;;8.90;96.00;;;;;;5014955;28;20477;-75
2021/11/06 04:03:58;;;;;;;15.10;6.13;;;8.90;96.00;;;;;;5015275;28;20057;-74
2021/11/06 04:06:24;;;;;;;9.93;5.88;;;8.90;96.00;;;;;;5015290;28;20109;-75
2021/11/06 04:08:51;;;;;;;9.52;4.65;;;8.90;96.00;;;;;;5015582;28;20084;-73
2021/11/06 04:11:18;;;;;;;10.13;5.30;;;8.90;95.90;;;;;;5015045;28;20117;-74
2021/11/06 04:13:44;;;;;;;12.10;6.05;;;8.90;95.90;;;;;;5014661;28;20076;-74
2021/11/06 04:16:10;;;;;;;10.93;5.18;;;8.90;95.90;;;;;;5014698;28;20054;-74
2021/11/06 04:18:35;;;;;;;10.00;5.50;;;8.90;95.90;;;;;;5013605;28;20112;-74
2021/11/06 04:21:01;;;;;;;10.73;4.88;;;8.90;95.80;;;;;;5014930;28;20105;-74
2021/11/06 04:23:27;;;;;;;13.65;5.78;;;8.90;95.90;;;;;;5013342;28;20096;-74
2021/11/06 04:25:53;;;;;;;10.00;4.82;;;8.90;95.80;;;;;;5013496;28;20029;-74
2021/11/06 04:28:19;;;;;;;10.55;5.07;;;8.90;95.80;;;;;;5015041;28;20022;-74
2021/11/06 04:30:44;;;;;;;12.40;5.53;;;8.90;95.80;;;;;;5015199;28;20393;-74
2021/11/06 04:33:10;;;;;;;12.93;5.90;;;8.90;95.80;;;;;;5015124;28;20379;-74
2021/11/06 04:35:36;;;;;;;10.77;5.75;;;8.90;95.80;;;;;;5014373;28;20042;-72
2021/11/06 04:38:02;;;;;;;14.60;6.30;;;8.90;95.80;;;;;;5014678;28;20026;-74
2021/11/06 04:40:27;;;;;;;12.27;5.38;;;8.90;96.10;;;;;;5014325;28;20017;-74
2021/11/06 04:42:53;;;;;;;13.90;6.03;;;8.90;95.80;;;;;;5014429;28;20086;-74
2021/11/06 04:45:19;;;;;;;11.38;6.07;;;8.80;96.00;;;;;;5013189;28;20053;-74
2021/11/06 04:47:45;;;;;;;15.60;6.43;;;8.80;95.70;;;;;;5013154;28;20401;-74
2021/11/06 04:50:11;;;;;;;15.25;7.38;;;8.80;95.60;;;;;;5014416;28;20022;-74
2021/11/06 04:52:38;;;;;;;14.35;6.40;;;8.70;95.70;;;;;;5013041;28;20048;-74
2021/11/06 04:55:07;;;;;;;10.65;5.78;;;8.70;95.70;;;;;;5014320;28;20026;-73
2021/11/06 04:57:33;;;;;;;11.32;5.60;;;8.70;95.70;;;;;;5014241;28;20022;-75
2021/11/06 04:59:58;;;;;;;14.15;5.70;;;8.70;95.70;;;;;;5014086;28;20358;-75
2021/11/06 05:02:24;;;;;;;12.43;5.80;;;8.70;95.70;;;;;;5014794;28;20048;-74
2021/11/06 05:04:50;;;;;;;14.65;6.35;;;8.80;95.60;;;;;;5012993;28;20024;-75
2021/11/06 05:07:16;;;;;;;10.05;5.28;;;8.70;95.60;;;;;;5014166;28;20082;-74
2021/11/06 05:09:44;;;;;;;11.82;6.28;;;8.70;95.60;;;;;;5013955;28;20026;-74
2021/11/06 05:12:12;;;;;;;14.32;6.70;;;8.70;95.60;;;;;;5014038;28;20049;-75
2021/11/06 05:14:38;;;;;;;9.43;5.75;;;8.70;95.70;;;;;;5014337;28;20034;-74
2021/11/06 05:17:05;;;;;;;13.10;5.47;;;8.70;95.70;;;;;;5012777;28;20065;-74
2021/11/06 05:19:30;;;;;;;10.98;5.78;;;8.80;95.60;;;;;;5014277;28;20030;-74
2021/11/06 05:21:56;;;;;;;10.85;5.43;;;8.80;95.60;;;;;;5012388;28;20431;-75
2021/11/06 05:24:22;;;;;;;12.75;5.32;;;8.80;95.60;;;;;;5012497;28;20029;-74
2021/11/06 05:26:47;;;;;;;14.60;6.10;;;8.80;95.60;;;;;;5012104;28;20029;-74
2021/11/06 05:29:13;;;;;;;12.10;6.32;;;8.80;95.60;;;;;;5013959;28;20482;-75
2021/11/06 05:31:40;;;;;;;13.50;6.68;;;8.90;95.60;;;;;;5012439;28;20350;-74
2021/11/06 05:34:06;;;;;;;15.00;6.28;;;8.90;95.50;;;;;;5013156;28;20482;-75
2021/11/06 05:36:33;;;;;;;11.50;6.35;;;8.90;95.50;;;;;;5011955;28;20130;-75
2021/11/06 05:38:59;;;;;;;12.18;6.38;;;8.90;95.50;;;;;;5012254;28;20386;-75
2021/11/06 05:41:25;;;;;;;12.77;6.45;;;8.80;95.50;;;;;;5013627;28;20113;-75
2021/11/06 05:43:50;;;;;;;10.63;5.05;;;8.80;95.60;;;;;;5014140;28;20383;-75
2021/11/06 05:46:16;;;;;;;15.45;6.40;;;8.90;95.60;;;;;;5013125;28;20025;-75
2021/11/06 05:48:42;;;;;;;8.73;4.93;;;8.90;95.70;;;;;;5013444;28;20108;-75
2021/11/06 05:51:08;;;;;;;11.38;6.15;;;8.90;95.70;;;;;;5013074;28;20054;-75
2021/11/06 05:53:34;;;;;;;13.35;6.63;;;8.80;95.70;;;;;;5012507;28;20030;-75
2021/11/06 05:55:59;;;;;;;11.68;5.63;;;8.80;95.70;;;;;;5011947;28;20022;-75
2021/11/06 05:58:25;;;;;;;12.77;6.65;;;8.80;95.80;;;;;;5013330;28;20037;-75
2021/11/06 06:00:51;;;;;;;12.15;6.60;;;8.80;95.80;;;;;;5013168;28;20144;-75
2021/11/06 06:03:17;;;;;;;10.18;6.38;;;8.80;95.80;;;;;;5013351;28;20033;-75
2021/11/06 06:05:43;;;;;;;13.55;6.38;;;8.90;95.90;;;;;;5011627;28;20022;-76
2021/11/06 06:08:09;;;;;;;14.05;5.43;;;8.80;95.90;;;;;;5012960;28;20350;-76
2021/11/06 06:10:35;;;;;;;13.38;6.55;;;8.90;96.00;;;;;;5013265;28;20026;-75
2021/11/06 06:13:01;;;;;;;10.35;5.22;;;8.80;95.90;;;;;;5011991;28;20029;-75
2021/11/06 06:15:26;;;;;;;13.13;6.28;;;8.90;96.00;;;;;;5011547;28;20148;-74
2021/11/06 06:17:52;;;;;;;9.88;5.47;;;8.80;95.90;;;;;;5011752;28;20018;-75
2021/11/06 06:20:19;;;;;;;11.02;6.05;;;8.90;96.00;;;;;;5011813;28;20417;-75
2021/11/06 06:22:45;;;;;;;12.23;7.18;;;8.80;96.00;;;;;;5012947;28;20030;-75
2021/11/06 06:25:13;;;;;;;15.43;7.30;;;8.80;96.00;;;;;;5011979;28;20022;-75
2021/11/06 06:27:40;;;;;;;10.82;5.97;;;8.80;96.00;;;;;;5012650;28;20433;-75
2021/11/06 06:30:08;;;;;;;10.88;6.13;;;8.90;96.10;;;;;;5011722;28;20121;-75
2021/11/06 06:32:34;;;;;;;12.90;6.13;;;8.90;96.00;;;;;;5011757;28;20367;-74
2021/11/06 06:34:59;;;;;;;12.43;7.10;;;8.90;96.00;;;;;;5011547;28;20504;-75
2021/11/06 06:37:26;;;;;;;11.73;6.32;;;8.90;96.00;;;;;;5011740;28;20029;-75
2021/11/06 06:39:51;;;;;;;13.68;6.82;;;8.90;96.00;;;;;;5013539;28;20097;-75
2021/11/06 06:42:18;;;;;;;14.38;8.07;;;8.90;96.00;;;;;;5011905;28;20113;-75
2021/11/06 06:44:44;;;;;;;14.85;7.20;;;8.90;96.00;;;;;;5011536;28;20026;-75
2021/11/06 06:47:13;;;;;;;12.90;6.60;;;8.90;96.00;;;;;;5012979;28;20026;-75
2021/11/06 06:49:39;;;;;;;11.95;6.65;;;8.90;96.00;;;;;;5011492;28;20025;-76
2021/11/06 06:52:06;;;;;;;11.55;6.75;;;8.90;96.00;;;;;;5013122;28;20030;-75
2021/11/06 06:54:32;;;;;;;12.43;7.28;;;9.00;96.00;;;;;;5013216;28;20045;-75
2021/11/06 06:56:58;;;;;;;12.82;6.78;;;9.00;96.00;;;;;;5011441;28;20074;-75
2021/11/06 06:59:23;;;;;;;15.43;6.72;;;9.00;96.00;;;;;;5012995;28;20477;-75
2021/11/06 07:01:49;;;;;;;13.32;7.40;;;9.00;96.00;;;;;;5011447;28;20045;-75
2021/11/06 07:04:15;;;;;;;12.65;7.10;;;8.90;96.00;;;;;;5015074;28;20493;-74
2021/11/06 07:06:42;;;;;;;13.85;7.40;;;8.90;96.00;;;;;;5015213;28;20053;-75
2021/11/06 07:09:08;;;;;;;12.27;7.05;;;9.00;96.10;;;;;;5014976;28;20417;-74
2021/11/06 07:11:34;;;;;;;11.55;6.40;;;8.90;96.10;;;;;;5014962;28;20080;-74
2021/11/06 07:13:59;;;;;;;13.25;7.03;;;9.00;96.10;;;;;;5014754;28;20076;-75
2021/11/06 07:16:25;;;;;;;10.82;6.40;;;9.00;96.10;;;;;;5016031;28;20030;-75
2021/11/06 07:18:50;;;;;;;10.63;6.68;;;9.00;96.10;;;;;;5016510;28;20076;-74
2021/11/06 07:21:16;;;;;;;12.82;7.10;;;9.00;96.00;;;;;;5016246;28;20021;-75
2021/11/06 07:23:42;;;;;;;11.43;6.53;;;9.00;96.00;;;;;;5015824;28;20474;-75
2021/11/06 07:26:08;;;;;;;13.38;6.20;;;9.10;96.00;;;;;;5015942;28;20109;-74
2021/11/06 07:28:34;;;;;;;15.40;7.20;;;9.10;96.00;;;;;;5015986;28;20061;-75
2021/11/06 07:30:59;;;;;;;11.63;6.50;;;9.10;96.00;;;;;;5014554;28;20022;-75
2021/11/06 07:33:25;;;;;;;10.48;5.68;;;9.10;96.00;;;;;;5015678;28;20037;-75
2021/11/06 07:35:51;;;;;;;9.75;5.20;;;9.10;96.00;;;;;;5016331;28;20351;-75
2021/11/06 07:38:17;;;;;;;12.15;6.35;;;9.10;96.00;;;;;;5015505;28;20049;-74
2021/11/06 07:40:44;;;;;;;13.40;5.15;;;9.10;96.00;;;;;;5015729;28;20417;-75
2021/11/06 07:43:11;;;;;;;14.93;7.60;;;9.20;96.00;;;;;;5015384;28;20439;-75
2021/11/06 07:45:37;;;;;;;11.50;5.80;;;9.10;96.00;;;;;;5015779;28;20296;-75
2021/11/06 07:48:03;;;;;;;12.27;6.63;;;9.10;96.00;;;;;;5016286;28;20101;-74
2021/11/06 07:50:30;;;;;;;10.77;6.63;;;9.10;96.00;;;;;;5014222;28;20490;-75
2021/11/06 07:52:55;;;;;;;11.77;6.45;;;9.10;96.00;;;;;;5014670;28;20377;-75
2021/11/06 07:55:21;;;;;;;11.13;6.55;;;9.20;96.10;;;;;;5014288;28;20458;-76
2021/11/06 07:57:47;;;;;;;11.60;6.78;;;9.20;96.00;;;;;;5014185;28;20018;-76
2021/11/06 08:00:16;;;;;;;9.13;5.35;;;9.20;96.00;;;;;;5014087;28;20496;-76
2021/11/06 08:02:42;;;;;;;10.95;5.78;;;9.30;96.10;;;;;;5015822;28;20076;-76
2021/11/06 08:05:11;;;;;;;12.02;7.00;;;9.30;96.10;;;;;;5014907;28;20030;-75
2021/11/06 08:07:37;;;;;;;9.98;5.47;;;9.30;96.30;;;;;;5015220;28;20117;-75
2021/11/06 08:10:04;;;;;;;13.52;7.00;;;9.20;96.10;;;;;;5015806;28;20109;-74
2021/11/06 08:12:30;;;;;;;10.35;6.15;;;9.20;96.00;;;;;;5015504;28;20049;-74
2021/11/06 08:14:56;;;;;;;11.48;6.35;;;9.30;96.10;;;;;;5013720;28;20059;-75
2021/11/06 08:17:22;;;;;;;12.57;6.53;;;9.20;96.10;;;;;;5013826;28;20176;-75
2021/11/06 08:19:48;;;;;;;11.07;5.85;;;9.30;96.10;;;;;;5014582;28;20499;-75
2021/11/06 08:22:14;;;;;;;12.95;6.10;;;9.40;96.00;;;;;;5014998;28;20548;-73
2021/11/06 08:24:40;;;;;;;6.80;4.20;;;9.50;96.00;;;;;;5013535;28;20026;-75
2021/11/06 08:27:07;;;;;;;11.63;6.13;;;9.50;95.90;;;;;;5013392;28;20037;-75
2021/11/06 08:29:33;;;;;;;8.82;5.45;;;9.60;95.80;;;;;;5014646;28;20025;-74
2021/11/06 08:31:59;;;;;;;11.68;5.70;;;9.60;95.70;;;;;;5014362;28;20386;-74
2021/11/06 08:34:27;;;;;;;11.65;5.90;;;9.60;95.70;;;;;;5013148;28;20049;-75
2021/11/06 08:36:53;;;;;;;13.60;6.40;;;9.60;95.70;;;;;;5013324;28;20018;-75
2021/11/06 08:39:20;;;;;;;11.07;6.18;;;9.70;95.70;;;;;;5013170;28;20438;-75
2021/11/06 08:41:47;;;;;;;11.98;6.57;;;9.70;95.70;;;;;;5014296;28;20033;-75
2021/11/06 08:44:18;;;;;;;9.45;5.68;;;9.60;95.70;;;;;;5014509;28;20458;-75
2021/11/06 08:46:46;;;;;;;12.85;5.65;;;9.60;95.70;;;;;;5014501;28;20026;-75
2021/11/06 08:49:13;;;;;;;9.23;5.35;;;9.70;95.70;;;;;;5013044;28;20045;-74
2021/11/06 08:51:43;;;;;;;10.55;5.30;;;9.70;95.70;;;;;;5012995;28;20029;-75
2021/11/06 08:54:09;;;;;;;13.95;6.18;;;9.80;95.70;;;;;;5012992;28;20480;-75
2021/11/06 08:56:35;;;;;;;9.88;5.70;;;9.70;95.60;;;;;;5014325;28;20054;-75
2021/11/06 08:59:00;;;;;;;10.52;5.82;;;9.80;95.60;;;;;;5013701;28;20018;-75
2021/11/06 09:01:26;;;;;;;9.75;5.85;;;9.80;95.50;;;;;;5013817;28;20030;-75
2021/11/06 09:03:52;;;;;;;10.90;5.80;;;9.80;95.50;;;;;;5014386;28;20362;-76
2021/11/06 09:06:19;;;;;;;11.48;5.65;;;9.80;95.50;;;;;;5014320;28;20033;-75
2021/11/06 09:08:46;;;;;;;10.15;5.80;;;9.80;95.50;;;;;;5013465;28;20025;-75
2021/11/06 09:11:13;;;;;;;8.75;5.18;;;9.80;95.50;;;;;;5013804;28;20540;-75
2021/11/06 09:13:43;;;;;;;10.90;5.40;;;9.90;95.50;;;;;;5012377;28;20097;-75
2021/11/06 09:16:10;;;;;;;8.25;5.00;;;9.90;95.40;;;;;;5013500;28;20082;-75
2021/11/06 09:18:40;;;;;;;10.40;5.13;;;10.00;95.40;;;;;;5013801;28;20030;-75
2021/11/06 09:21:11;;;;;;;10.32;5.10;;;10.10;95.40;;;;;;5013422;28;20022;-75
2021/11/06 09:23:38;;;;;;;11.82;5.32;;;10.00;95.40;;;;;;5013481;28;20026;-74
2021/11/06 09:26:04;;;;;;;9.85;5.35;;;10.10;95.40;;;;;;5013305;28;20026;-74
2021/11/06 09:28:32;;;;;;;7.80;5.10;;;10.10;95.40;;;;;;5013582;28;20017;-75
2021/11/06 09:30:58;;;;;;;9.70;5.15;;;10.10;95.40;;;;;;5013606;28;20093;-75
2021/11/06 09:33:24;;;;;;;10.73;5.50;;;10.10;95.30;;;;;;5012106;28;20107;-75
2021/11/06 09:35:50;;;;;;;8.85;5.03;;;10.10;95.30;;;;;;5012438;28;20025;-75
2021/11/06 09:38:15;;;;;;;10.20;5.38;;;10.10;95.30;;;;;;5012375;28;20370;-74
2021/11/06 09:40:41;;;;;;;9.80;5.60;;;10.20;95.40;;;;;;5013455;28;20083;-75
2021/11/06 09:43:07;;;;;;;12.93;5.78;;;10.20;95.30;;;;;;5013245;28;20030;-74
2021/11/06 09:45:33;;;;;;;10.45;5.43;;;10.20;95.20;;;;;;5012043;28;20034;-75
2021/11/06 09:47:58;;;;;;;8.80;5.35;;;10.20;95.20;;;;;;5013857;28;20044;-75
2021/11/06 09:50:25;;;;;;;10.30;5.32;;;10.20;95.20;;;;;;5012264;28;20022;-75
2021/11/06 09:52:52;;;;;;;8.40;5.03;;;10.20;95.20;;;;;;5013265;28;20025;-75
2021/11/06 09:55:22;;;;;;;12.15;5.55;;;10.30;95.20;;;;;;5013220;28;20109;-75
2021/11/06 09:57:48;;;;;;;7.15;4.50;;;10.30;95.10;;;;;;5013161;28;20018;-75
2021/11/06 10:00:15;;;;;;;8.52;4.38;;;10.40;95.10;;;;;;5013634;28;20018;-75
2021/11/06 10:02:42;;;;;;;10.18;4.28;;;10.40;95.00;;;;;;5012893;28;20480;-75
2021/11/06 10:05:08;;;;;;;9.30;5.20;;;10.50;94.90;;;;;;5013545;28;20476;-75
2021/11/06 10:07:34;;;;;;;10.07;5.35;;;10.50;94.80;;;;;;5012894;28;20018;-75
2021/11/06 10:10:02;;;;;;;11.45;5.13;;;10.50;94.80;;;;;;5011844;28;20048;-75
2021/11/06 10:12:45;;;;;;;11.45;5.10;;;10.50;94.90;;;;;;5012076;28;20022;-75
2021/11/06 10:15:12;;;;;;;8.57;4.20;;;10.50;94.80;;;;;;5013076;28;20026;-74
2021/11/06 10:17:38;;;;;;;9.05;4.65;;;10.60;94.80;;;;;;5011818;28;20480;-75
2021/11/06 10:20:21;;;;;;;9.38;4.32;;;10.60;94.80;;;;;;5012672;28;20026;-76
2021/11/06 10:22:48;;;;;;;8.07;4.53;;;10.60;94.80;;;;;;5013039;28;20125;-74
2021/11/06 10:25:16;;;;;;;11.40;4.80;;;10.70;94.70;;;;;;5012806;28;20022;-75
2021/11/06 10:27:55;;;;;;;10.43;4.25;;;10.70;94.70;;;;;;5013109;28;20101;-76
2021/11/06 10:30:27;;;;;;;8.10;4.82;;;10.70;94.60;;;;;;5012889;28;20026;-76
2021/11/06 10:33:14;;;;;;;7.85;3.75;;;10.70;94.60;;;;;;5012907;28;20065;-74
2021/11/06 10:35:43;;;;;;;8.40;4.85;;;10.70;94.60;;;;;;5013560;28;20058;-75
2021/11/06 10:38:18;;;;;;;6.72;4.15;;;10.70;94.40;;;;;;5013425;28;20021;-75
2021/11/06 10:40:52;;;;;;;12.82;5.32;;;10.70;94.40;;;;;;5015339;28;20060;-75
2021/11/06 10:43:21;;;;;;;8.75;4.57;;;10.70;94.40;;;;;;5016727;28;20104;-75
2021/11/06 10:45:49;;;;;;;7.72;4.03;;;10.70;94.40;;;;;;5015272;28;20382;-75
2021/11/06 10:48:23;;;;;;;10.68;4.65;;;10.80;94.40;;;;;;5015189;28;20025;-75
2021/11/06 10:50:55;;;;;;;10.32;4.97;;;10.80;94.30;;;;;;5016033;28;20026;-75
2021/11/06 10:53:40;;;;;;;7.85;4.25;;;10.90;94.30;;;;;;5015011;28;20124;-75
2021/11/06 10:56:34;;;;;;;8.20;4.53;;;11.00;94.20;;;;;;5015768;28;20029;-75
2021/11/06 10:59:15;;;;;;;7.10;3.60;;;11.00;94.10;;;;;;5010133;28;20037;-74
2021/11/06 11:01:46;;;;;;;10.77;5.22;;;11.10;94.10;;;;;;5016595;28;20034;-75
2021/11/06 11:04:17;;;;;;;8.23;4.55;;;11.10;94.00;;;;;;5015222;28;20095;-74
2021/11/06 11:06:51;;;;;;;8.55;4.68;;;11.10;93.90;;;;;;5016921;28;20033;-74
2021/11/06 11:09:19;;;;;;;7.10;4.47;;;11.10;93.90;;;;;;5014990;28;20105;-75
2021/11/06 11:11:47;;;;;;;7.03;3.80;;;11.20;93.90;;;;;;5016135;28;20018;-75
2021/11/06 11:14:19;;;;;;;6.90;4.18;;;11.30;93.90;;;;;;5015847;28;20056;-75
2021/11/06 11:17:05;;;;;;;7.53;3.85;;;11.30;93.80;;;;;;5016090;28;20060;-75
2021/11/06 11:19:33;;;;;;;6.15;3.33;;;11.30;93.80;;;;;;5015961;28;20109;-75
2021/11/06 11:22:00;;;;;;;7.88;3.90;;;11.30;93.80;;;;;;5014307;28;20053;-75
2021/11/06 11:24:26;;;;;;;7.13;4.10;;;11.30;93.80;;;;;;5014864;28;20084;-76
2021/11/06 11:26:54;;;;;;;7.63;3.88;;;11.30;93.80;;;;;;5015469;28;20025;-75
2021/11/06 11:29:39;;;;;;;8.05;3.88;;;11.30;93.80;;;;;;5015755;28;20076;-75
2021/11/06 11:32:06;;;;;;;6.22;4.07;;;11.40;93.70;;;;;;5014558;28;20045;-76
2021/11/06 11:34:32;;;;;;;6.47;4.07;;;11.40;93.60;;;;;;5015626;28;20045;-75
2021/11/06 11:36:59;;;;;;;6.55;3.30;;;11.40;93.60;;;;;;5015635;28;20025;-75
2021/11/06 11:39:26;;;;;;;6.82;3.42;;;11.50;93.60;;;;;;5014399;28;20030;-75
2021/11/06 11:42:27;;;;;;;5.53;3.40;;;11.50;93.60;;;;;;5015735;28;20053;-75
2021/11/06 11:45:18;;;;;;;9.32;3.63;;;11.60;93.50;;;;;;5014333;28;20108;-75
2021/11/06 11:47:53;;;;;;;4.90;3.15;;;11.60;93.40;;;;;;5014634;28;20030;-75
2021/11/06 11:50:32;;;;;;;6.40;3.40;;;11.60;93.30;;;;;;5014956;28;20524;-75
2021/11/06 11:53:06;;;;;;;7.90;4.00;;;11.60;93.40;;;;;;5015575;28;20054;-75
2021/11/06 11:55:47;;;;;;;5.72;3.58;;;11.60;93.30;;;;;;5016214;28;20061;-75
2021/11/06 11:58:23;;;;;;;4.85;2.95;;;11.70;93.30;;;;;;5015362;28;20017;-76
2021/11/06 12:01:00;;;;;;;9.18;3.83;;;11.70;93.30;;;;;;5014451;28;20022;-76
2021/11/06 12:03:47;;;;;;;7.45;3.97;;;11.60;93.20;;;;;;5014616;28;20382;-76
2021/11/06 12:06:37;;;;;;;6.00;3.35;;;11.60;93.20;;;;;;5014590;28;20033;-76
2021/11/06 12:09:03;;;;;;;6.78;3.50;;;11.60;93.20;;;;;;5015204;28;20133;-76
2021/11/06 12:11:31;;;;;;;5.13;2.90;;;11.60;93.10;;;;;;5015372;28;20060;-75
2021/11/06 12:13:58;;;;;;;6.75;3.78;;;11.60;93.00;;;;;;5016082;28;20057;-74
2021/11/06 12:16:41;;;;;;;5.82;3.25;;;11.70;93.00;;;;;;5015283;28;20034;-75
2021/11/06 12:19:07;;;;;;;7.60;4.00;;;11.80;92.90;;;;;;5015218;28;20053;-76
2021/11/06 12:21:36;;;;;;;5.20;3.35;;;11.90;92.60;;;;;;5015328;28;20494;-76
2021/11/06 12:24:11;;;;;;;5.43;3.40;;;12.00;92.60;;;;;;5014905;28;20021;-76
2021/11/06 12:26:55;;;;;;;4.97;2.92;;;12.10;92.40;;;;;;5015259;28;20033;-76
2021/11/06 12:29:25;;;;;;;6.43;3.10;;;12.10;92.40;;;;;;5013498;28;20026;-76
2021/11/06 12:31:56;;;;;;;7.45;3.92;;;12.20;92.30;;;;;;5013404;28;20030;-76
2021/11/06 12:34:35;;;;;;;5.45;3.03;;;12.20;92.10;;;;;;5013126;28;20073;-75
2021/11/06 12:37:03;;;;;;;6.07;3.63;;;12.20;92.20;;;;;;5013744;28;20022;-76
2021/11/06 12:40:03;;;;;;;7.93;3.53;;;12.20;92.20;;;;;;5014196;28;20022;-74
2021/11/06 12:42:29;;;;;;;5.97;3.25;;;12.20;92.30;;;;;;4994478;28;20037;-74
2021/11/06 12:45:01;;;;;;;6.28;3.45;;;12.20;92.20;;;;;;5016172;28;20026;-74
2021/11/06 12:47:28;;;;;;;6.15;3.40;;;12.20;92.20;;;;;;5013333;28;20026;-76
2021/11/06 12:49:55;;;;;;;5.75;3.25;;;12.10;92.20;;;;;;5013226;28;20117;-76